sensor_id;sensor_type;location;lat;lon;timestamp;pressure;altitude;pressure_sealevel;temperature;humidity
11440;BME280;5776;51.814;4.510;2024-01-30T00:02:23;102614.50;;;6.89;100.00
11440;BME280;5776;51.814;4.510;2024-01-30T00:04:49;102616.38;;;6.89;100.00
11440;BME280;5776;51.814;4.510;2024-01-30T00:07:15;102610.97;;;6.89;100.00
11440;BME280;5776;51.814;4.510;2024-01-30T00:09:41;102605.81;;;6.87;100.00
11440;BME280;5776;51.814;4.510;2024-01-30T00:12:07;102604.97;;;6.87;100.00
11440;BME280;5776;51.814;4.510;2024-01-30T00:14:33;102602.88;;;6.89;100.00
11440;BME280;5776;51.814;4.510;2024-01-30T00:16:59;102607.25;;;6.90;100.00
11440;BME280;5776;51.814;4.510;2024-01-30T00:19:25;102606.38;;;6.89;100.00
11440;BME280;5776;51.814;4.510;2024-01-30T00:21:51;102597.47;;;6.89;100.00
11440;BME280;5776;51.814;4.510;2024-01-30T00:24:17;102596.44;;;6.90;100.00
11440;BME280;5776;51.814;4.510;2024-01-30T00:26:42;102595.59;;;6.89;100.00
11440;BME280;5776;51.814;4.510;2024-01-30T00:29:08;102594.56;;;6.90;100.00
11440;BME280;5776;51.814;4.510;2024-01-30T00:31:35;102583.97;;;6.89;100.00
11440;BME280;5776;51.814;4.510;2024-01-30T00:34:01;102574.22;;;6.88;100.00
11440;BME280;5776;51.814;4.510;2024-01-30T00:36:26;102574.22;;;6.88;100.00
11440;BME280;5776;51.814;4.510;2024-01-30T00:38:55;102562.59;;;6.87;100.00
11440;BME280;5776;51.814;4.510;2024-01-30T00:41:20;102569.41;;;6.90;100.00
11440;BME280;5776;51.814;4.510;2024-01-30T00:43:46;102575.66;;;6.90;100.00
11440;BME280;5776;51.814;4.510;2024-01-30T00:46:12;102577.06;;;6.93;100.00
11440;BME280;5776;51.814;4.510;2024-01-30T00:48:39;102579.16;;;6.91;100.00
11440;BME280;5776;51.814;4.510;2024-01-30T00:51:05;102576.69;;;6.89;100.00
11440;BME280;5776;51.814;4.510;2024-01-30T00:53:31;102574.59;;;6.91;100.00
11440;BME280;5776;51.814;4.510;2024-01-30T00:55:56;102575.41;;;6.92;100.00
11440;BME280;5776;51.814;4.510;2024-01-30T00:58:22;102566.28;;;6.93;100.00
11440;BME280;5776;51.814;4.510;2024-01-30T01:00:48;102566.28;;;6.93;100.00
11440;BME280;5776;51.814;4.510;2024-01-30T01:03:14;102563.34;;;6.95;100.00
11440;BME280;5776;51.814;4.510;2024-01-30T01:05:40;102561.69;;;6.93;100.00
11440;BME280;5776;51.814;4.510;2024-01-30T01:08:06;102557.09;;;6.94;100.00
11440;BME280;5776;51.814;4.510;2024-01-30T01:10:32;102557.09;;;6.94;100.00
11440;BME280;5776;51.814;4.510;2024-01-30T01:12:58;102558.78;;;6.95;100.00
11440;BME280;5776;51.814;4.510;2024-01-30T01:15:23;102558.78;;;6.95;100.00
11440;BME280;5776;51.814;4.510;2024-01-30T01:17:49;102552.09;;;6.98;100.00
11440;BME280;5776;51.814;4.510;2024-01-30T01:20:15;102554.81;;;6.98;100.00
11440;BME280;5776;51.814;4.510;2024-01-30T01:22:41;102559.16;;;6.99;100.00
11440;BME280;5776;51.814;4.510;2024-01-30T01:25:08;102562.47;;;7.01;100.00
11440;BME280;5776;51.814;4.510;2024-01-30T01:27:36;102567.03;;;7.00;100.00
11440;BME280;5776;51.814;4.510;2024-01-30T01:30:08;102563.28;;;7.01;100.00
11440;BME280;5776;51.814;4.510;2024-01-30T01:32:35;102570.78;;;6.99;100.00
11440;BME280;5776;51.814;4.510;2024-01-30T01:35:02;102565.38;;;6.99;100.00
11440;BME280;5776;51.814;4.510;2024-01-30T01:37:28;102559.16;;;6.99;100.00
11440;BME280;5776;51.814;4.510;2024-01-30T01:39:54;102559.97;;;6.99;100.00
11440;BME280;5776;51.814;4.510;2024-01-30T01:42:20;102568.06;;;6.99;100.00
11440;BME280;5776;51.814;4.510;2024-01-30T01:44:46;102568.69;;;7.01;100.00
11440;BME280;5776;51.814;4.510;2024-01-30T01:47:12;102570.56;;;7.01;100.00
11440;BME280;5776;51.814;4.510;2024-01-30T01:49:38;102562.69;;;6.99;100.00
11440;BME280;5776;51.814;4.510;2024-01-30T01:52:04;102560.81;;;7.00;100.00
11440;BME280;5776;51.814;4.510;2024-01-30T01:54:31;102563.28;;;7.01;100.00
11440;BME280;5776;51.814;4.510;2024-01-30T01:56:57;102552.47;;;7.01;100.00
11440;BME280;5776;51.814;4.510;2024-01-30T01:59:23;102548.34;;;6.99;100.00
11440;BME280;5776;51.814;4.510;2024-01-30T02:01:50;102543.56;;;7.01;100.00
11440;BME280;5776;51.814;4.510;2024-01-30T02:04:18;102550.84;;;7.00;100.00
11440;BME280;5776;51.814;4.510;2024-01-30T02:06:44;102547.06;;;7.01;100.00
11440;BME280;5776;51.814;4.510;2024-01-30T02:09:10;102538.34;;;6.99;100.00
11440;BME280;5776;51.814;4.510;2024-01-30T02:11:36;102540.03;;;7.00;100.00
11440;BME280;5776;51.814;4.510;2024-01-30T02:14:03;102545.44;;;7.00;100.00
11440;BME280;5776;51.814;4.510;2024-01-30T02:16:30;102546.88;;;7.03;100.00
11440;BME280;5776;51.814;4.510;2024-01-30T02:18:56;102541.66;;;7.01;100.00
11440;BME280;5776;51.814;4.510;2024-01-30T02:21:22;102528.97;;;7.02;100.00
11440;BME280;5776;51.814;4.510;2024-01-30T02:23:48;102534.63;;;7.00;100.00
11440;BME280;5776;51.814;4.510;2024-01-30T02:26:15;102535.25;;;7.02;100.00
11440;BME280;5776;51.814;4.510;2024-01-30T02:28:41;102531.69;;;7.02;100.00
11440;BME280;5776;51.814;4.510;2024-01-30T02:31:07;102535.25;;;7.02;100.00
11440;BME280;5776;51.814;4.510;2024-01-30T02:33:33;102528.78;;;7.03;100.00
11440;BME280;5776;51.814;4.510;2024-01-30T02:35:59;102528.78;;;7.03;100.00
11440;BME280;5776;51.814;4.510;2024-01-30T02:38:26;102537.69;;;7.04;100.00
11440;BME280;5776;51.814;4.510;2024-01-30T02:40:52;102540.19;;;7.05;100.00
11440;BME280;5776;51.814;4.510;2024-01-30T02:43:20;102537.47;;;7.05;100.00
11440;BME280;5776;51.814;4.510;2024-01-30T02:45:46;102541.22;;;7.04;100.00
11440;BME280;5776;51.814;4.510;2024-01-30T02:48:11;102531.03;;;7.06;100.00
11440;BME280;5776;51.814;4.510;2024-01-30T02:50:38;102524.81;;;7.06;100.00
11440;BME280;5776;51.814;4.510;2024-01-30T02:53:04;102518.34;;;7.07;100.00
11440;BME280;5776;51.814;4.510;2024-01-30T02:55:30;102518.13;;;7.08;100.00
11440;BME280;5776;51.814;4.510;2024-01-30T02:57:56;102509.41;;;7.06;100.00
11440;BME280;5776;51.814;4.510;2024-01-30T03:00:23;102506.72;;;7.06;100.00
11440;BME280;5776;51.814;4.510;2024-01-30T03:02:49;102512.09;;;7.06;100.00
11440;BME280;5776;51.814;4.510;2024-01-30T03:05:15;102511.06;;;7.07;100.00
11440;BME280;5776;51.814;4.510;2024-01-30T03:07:41;102511.06;;;7.07;100.00
11440;BME280;5776;51.814;4.510;2024-01-30T03:10:07;102518.13;;;7.08;100.00
11440;BME280;5776;51.814;4.510;2024-01-30T03:12:33;102514.34;;;7.09;100.00
11440;BME280;5776;51.814;4.510;2024-01-30T03:14:59;102506.25;;;7.09;100.00
11440;BME280;5776;51.814;4.510;2024-01-30T03:17:25;102519.75;;;7.09;100.00
11440;BME280;5776;51.814;4.510;2024-01-30T03:19:51;102508.38;;;7.07;100.00
11440;BME280;5776;51.814;4.510;2024-01-30T03:22:17;102509.19;;;7.08;100.00
11440;BME280;5776;51.814;4.510;2024-01-30T03:24:43;102517.31;;;7.08;100.00
11440;BME280;5776;51.814;4.510;2024-01-30T03:27:09;102523.31;;;7.10;100.00
11440;BME280;5776;51.814;4.510;2024-01-30T03:29:34;102528.72;;;7.10;100.00
11440;BME280;5776;51.814;4.510;2024-01-30T03:32:00;102516.84;;;7.11;100.00
11440;BME280;5776;51.814;4.510;2024-01-30T03:34:26;102527.88;;;7.09;100.00
11440;BME280;5776;51.814;4.510;2024-01-30T03:36:52;102525.78;;;7.11;100.00
11440;BME280;5776;51.814;4.510;2024-01-30T03:39:18;102523.06;;;7.11;100.00
11440;BME280;5776;51.814;4.510;2024-01-30T03:41:44;102519.56;;;7.11;100.00
11440;BME280;5776;51.814;4.510;2024-01-30T03:44:10;102524.13;;;7.10;100.00
11440;BME280;5776;51.814;4.510;2024-01-30T03:46:37;102517.91;;;7.10;100.00
11440;BME280;5776;51.814;4.510;2024-01-30T03:49:02;102516.84;;;7.11;100.00
11440;BME280;5776;51.814;4.510;2024-01-30T03:51:28;102513.31;;;7.10;100.00
11440;BME280;5776;51.814;4.510;2024-01-30T03:53:56;102512.25;;;7.11;100.00
11440;BME280;5776;51.814;4.510;2024-01-30T03:56:22;102505.22;;;7.10;100.00
11440;BME280;5776;51.814;4.510;2024-01-30T03:58:48;102503.56;;;7.09;100.00
11440;BME280;5776;51.814;4.510;2024-01-30T04:01:14;102495.44;;;7.09;100.00
11440;BME280;5776;51.814;4.510;2024-01-30T04:03:41;102502.50;;;7.10;100.00
11440;BME280;5776;51.814;4.510;2024-01-30T04:06:06;102499.81;;;7.10;100.00
11440;BME280;5776;51.814;4.510;2024-01-30T04:08:34;102497.94;;;7.11;100.00
11440;BME280;5776;51.814;4.510;2024-01-30T04:11:04;102492.75;;;7.09;100.00
11440;BME280;5776;51.814;4.510;2024-01-30T04:13:32;102498.75;;;7.11;100.00
11440;BME280;5776;51.814;4.510;2024-01-30T04:16:02;102492.53;;;7.11;100.00
11440;BME280;5776;51.814;4.510;2024-01-30T04:18:28;102490.03;;;7.09;100.00
11440;BME280;5776;51.814;4.510;2024-01-30T04:20:54;102499.81;;;7.10;100.00
11440;BME280;5776;51.814;4.510;2024-01-30T04:23:21;102497.94;;;7.11;100.00
11440;BME280;5776;51.814;4.510;2024-01-30T04:25:46;102493.59;;;7.10;100.00
11440;BME280;5776;51.814;4.510;2024-01-30T04:28:12;102493.59;;;7.10;100.00
11440;BME280;5776;51.814;4.510;2024-01-30T04:30:38;102489.22;;;7.09;100.00
11440;BME280;5776;51.814;4.510;2024-01-30T04:33:05;102491.09;;;7.08;100.00
11440;BME280;5776;51.814;4.510;2024-01-30T04:35:31;102492.75;;;7.09;100.00
11440;BME280;5776;51.814;4.510;2024-01-30T04:37:57;102491.72;;;7.10;100.00
11440;BME280;5776;51.814;4.510;2024-01-30T04:40:23;102491.72;;;7.10;100.00
11440;BME280;5776;51.814;4.510;2024-01-30T04:42:49;102481.13;;;7.09;100.00
11440;BME280;5776;51.814;4.510;2024-01-30T04:45:15;102474.69;;;7.10;100.00
11440;BME280;5776;51.814;4.510;2024-01-30T04:47:41;102479.84;;;7.11;100.00
11440;BME280;5776;51.814;4.510;2024-01-30T04:50:07;102484.41;;;7.11;100.00
11440;BME280;5776;51.814;4.510;2024-01-30T04:52:33;102480.91;;;7.10;100.00
11440;BME280;5776;51.814;4.510;2024-01-30T04:54:59;102474.88;;;7.08;100.00
11440;BME280;5776;51.814;4.510;2024-01-30T04:57:25;102486.31;;;7.10;100.00
11440;BME280;5776;51.814;4.510;2024-01-30T04:59:51;102491.72;;;7.10;100.00
11440;BME280;5776;51.814;4.510;2024-01-30T05:02:17;102482.78;;;7.10;100.00
11440;BME280;5776;51.814;4.510;2024-01-30T05:04:43;102493.34;;;7.11;100.00
11440;BME280;5776;51.814;4.510;2024-01-30T05:07:08;102496.06;;;7.11;100.00
11440;BME280;5776;51.814;4.510;2024-01-30T05:09:34;102484.63;;;7.09;100.00
11440;BME280;5776;51.814;4.510;2024-01-30T05:12:00;102492.53;;;7.11;100.00
11440;BME280;5776;51.814;4.510;2024-01-30T05:14:27;102485.50;;;7.10;100.00
11440;BME280;5776;51.814;4.510;2024-01-30T05:16:53;102484.41;;;7.11;100.00
11440;BME280;5776;51.814;4.510;2024-01-30T05:19:19;102473.63;;;7.11;100.00
11440;BME280;5776;51.814;4.510;2024-01-30T05:21:46;102479.84;;;7.11;100.00
11440;BME280;5776;51.814;4.510;2024-01-30T05:24:11;102477.13;;;7.11;100.00
11440;BME280;5776;51.814;4.510;2024-01-30T05:26:38;102483.34;;;7.12;100.00
11440;BME280;5776;51.814;4.510;2024-01-30T05:29:04;102492.53;;;7.11;100.00
11440;BME280;5776;51.814;4.510;2024-01-30T05:31:30;102481.72;;;7.11;100.00
11440;BME280;5776;51.814;4.510;2024-01-30T05:33:56;102480.91;;;7.10;100.00
11440;BME280;5776;51.814;4.510;2024-01-30T05:36:22;102483.34;;;7.12;100.00
11440;BME280;5776;51.814;4.510;2024-01-30T05:38:48;102474.44;;;7.11;100.00
11440;BME280;5776;51.814;4.510;2024-01-30T05:41:14;102479.03;;;7.11;100.00
11440;BME280;5776;51.814;4.510;2024-01-30T05:43:40;102482.53;;;7.11;100.00
11440;BME280;5776;51.814;4.510;2024-01-30T05:46:06;102475.25;;;7.12;100.00
11440;BME280;5776;51.814;4.510;2024-01-30T05:48:32;102477.97;;;7.12;100.00
11440;BME280;5776;51.814;4.510;2024-01-30T05:50:58;102498.75;;;7.11;100.00
11440;BME280;5776;51.814;4.510;2024-01-30T05:53:25;102497.72;;;7.12;100.00
11440;BME280;5776;51.814;4.510;2024-01-30T05:55:51;102489.63;;;7.12;100.00
11440;BME280;5776;51.814;4.510;2024-01-30T05:58:17;102502.88;;;7.14;100.00
11440;BME280;5776;51.814;4.510;2024-01-30T06:00:43;102502.88;;;7.14;100.00
11440;BME280;5776;51.814;4.510;2024-01-30T06:03:09;102501.00;;;7.14;100.00
11440;BME280;5776;51.814;4.510;2024-01-30T06:05:35;102501.00;;;7.14;100.00
11440;BME280;5776;51.814;4.510;2024-01-30T06:08:02;102503.50;;;7.16;100.00
11440;BME280;5776;51.814;4.510;2024-01-30T06:10:28;102501.59;;;7.17;100.00
11440;BME280;5776;51.814;4.510;2024-01-30T06:12:53;102501.59;;;7.17;100.00
11440;BME280;5776;51.814;4.510;2024-01-30T06:15:19;102503.28;;;7.18;100.00
11440;BME280;5776;51.814;4.510;2024-01-30T06:17:45;102497.88;;;7.18;100.00
11440;BME280;5776;51.814;4.510;2024-01-30T06:20:11;102511.97;;;7.20;100.00
11440;BME280;5776;51.814;4.510;2024-01-30T06:22:37;102502.00;;;7.20;100.00
11440;BME280;5776;51.814;4.510;2024-01-30T06:25:03;102509.88;;;7.22;100.00
11440;BME280;5776;51.814;4.510;2024-01-30T06:27:29;102504.47;;;7.22;100.00
11440;BME280;5776;51.814;4.510;2024-01-30T06:29:55;102498.84;;;7.23;100.00
11440;BME280;5776;51.814;4.510;2024-01-30T06:32:20;102501.34;;;7.25;100.00
11440;BME280;5776;51.814;4.510;2024-01-30T06:34:46;102498.63;;;7.25;100.00
11440;BME280;5776;51.814;4.510;2024-01-30T06:37:12;102497.56;;;7.26;100.00
11440;BME280;5776;51.814;4.510;2024-01-30T06:39:38;102503.56;;;7.28;100.00
11440;BME280;5776;51.814;4.510;2024-01-30T06:42:04;102507.91;;;7.29;100.00
11440;BME280;5776;51.814;4.510;2024-01-30T06:44:30;102511.22;;;7.31;100.00
11440;BME280;5776;51.814;4.510;2024-01-30T06:46:56;102513.13;;;7.30;100.00
11440;BME280;5776;51.814;4.510;2024-01-30T06:49:22;102515.56;;;7.32;100.00
11440;BME280;5776;51.814;4.510;2024-01-30T06:51:48;102513.72;;;7.32;100.00
11440;BME280;5776;51.814;4.510;2024-01-30T06:54:13;102518.88;;;7.34;100.00
11440;BME280;5776;51.814;4.510;2024-01-30T06:56:39;102520.56;;;7.35;100.00
11440;BME280;5776;51.814;4.510;2024-01-30T06:59:05;102518.41;;;7.37;100.00
11440;BME280;5776;51.814;4.510;2024-01-30T07:01:31;102522.19;;;7.36;100.00
11440;BME280;5776;51.814;4.510;2024-01-30T07:03:58;102518.41;;;7.37;100.00
11440;BME280;5776;51.814;4.510;2024-01-30T07:06:24;102519.28;;;7.38;100.00
11440;BME280;5776;51.814;4.510;2024-01-30T07:08:50;102523.81;;;7.37;100.00
11440;BME280;5776;51.814;4.510;2024-01-30T07:11:20;102521.72;;;7.39;100.00
11440;BME280;5776;51.814;4.510;2024-01-30T07:13:47;102525.25;;;7.40;100.00
11440;BME280;5776;51.814;4.510;2024-01-30T07:16:14;102525.03;;;7.41;100.00
11440;BME280;5776;51.814;4.510;2024-01-30T07:18:41;102530.25;;;7.43;100.00
11440;BME280;5776;51.814;4.510;2024-01-30T07:21:07;102526.47;;;7.44;100.00
11440;BME280;5776;51.814;4.510;2024-01-30T07:23:33;102529.31;;;7.49;100.00
11440;BME280;5776;51.814;4.510;2024-01-30T07:26:01;102532.41;;;7.52;100.00
11440;BME280;5776;51.814;4.510;2024-01-30T07:28:27;102540.53;;;7.52;100.00
11440;BME280;5776;51.814;4.510;2024-01-30T07:30:52;102540.53;;;7.52;100.00
11440;BME280;5776;51.814;4.510;2024-01-30T07:33:18;102539.47;;;7.53;100.00
11440;BME280;5776;51.814;4.510;2024-01-30T07:35:45;102537.38;;;7.55;100.00
11440;BME280;5776;51.814;4.510;2024-01-30T07:38:11;102536.91;;;7.58;100.00
11440;BME280;5776;51.814;4.510;2024-01-30T07:40:37;102542.09;;;7.60;100.00
11440;BME280;5776;51.814;4.510;2024-01-30T07:43:03;102534.81;;;7.61;100.00
11440;BME280;5776;51.814;4.510;2024-01-30T07:45:29;102541.63;;;7.63;100.00
11440;BME280;5776;51.814;4.510;2024-01-30T07:47:58;102546.81;;;7.65;100.00
11440;BME280;5776;51.814;4.510;2024-01-30T07:50:25;102547.66;;;7.65;100.00
11440;BME280;5776;51.814;4.510;2024-01-30T07:52:51;102541.19;;;7.66;100.00
11440;BME280;5776;51.814;4.510;2024-01-30T07:55:21;102554.84;;;7.71;100.00
11440;BME280;5776;51.814;4.510;2024-01-30T07:57:52;102557.34;;;7.73;100.00
11440;BME280;5776;51.814;4.510;2024-01-30T08:00:19;102558.97;;;7.74;100.00
11440;BME280;5776;51.814;4.510;2024-01-30T08:02:54;102558.75;;;7.75;100.00
11440;BME280;5776;51.814;4.510;2024-01-30T08:05:21;102567.47;;;7.77;100.00
11440;BME280;5776;51.814;4.510;2024-01-30T08:07:50;102563.50;;;7.80;100.00
11440;BME280;5776;51.814;4.510;2024-01-30T08:10:16;102561.59;;;7.81;100.00
11440;BME280;5776;51.814;4.510;2024-01-30T08:12:44;102576.56;;;7.83;100.00
11440;BME280;5776;51.814;4.510;2024-01-30T08:15:11;102574.47;;;7.85;100.00
11440;BME280;5776;51.814;4.510;2024-01-30T08:17:37;102576.31;;;7.85;100.00
11440;BME280;5776;51.814;4.510;2024-01-30T08:20:04;102582.09;;;7.88;100.00
11440;BME280;5776;51.814;4.510;2024-01-30T08:22:30;102580.22;;;7.89;100.00
11440;BME280;5776;51.814;4.510;2024-01-30T08:24:56;102578.94;;;7.91;100.00
11440;BME280;5776;51.814;4.510;2024-01-30T08:27:22;102587.66;;;7.93;100.00
11440;BME280;5776;51.814;4.510;2024-01-30T08:29:48;102589.31;;;7.94;100.00
11440;BME280;5776;51.814;4.510;2024-01-30T08:32:15;102588.28;;;7.95;100.00
11440;BME280;5776;51.814;4.510;2024-01-30T08:34:41;102591.53;;;7.97;100.00
11440;BME280;5776;51.814;4.510;2024-01-30T08:37:07;102593.22;;;7.98;100.00
11440;BME280;5776;51.814;4.510;2024-01-30T08:39:33;102589.22;;;8.01;100.00
11440;BME280;5776;51.814;4.510;2024-01-30T08:41:59;102586.06;;;8.04;100.00
11440;BME280;5776;51.814;4.510;2024-01-30T08:44:25;102582.69;;;8.09;100.00
11440;BME280;5776;51.814;4.510;2024-01-30T08:46:51;102583.28;;;8.11;100.00
11440;BME280;5776;51.814;4.510;2024-01-30T08:49:16;102586.59;;;8.13;100.00
11440;BME280;5776;51.814;4.510;2024-01-30T08:51:44;102587.75;;;8.17;100.00
11440;BME280;5776;51.814;4.510;2024-01-30T08:54:09;102580.03;;;8.20;100.00
11440;BME280;5776;51.814;4.510;2024-01-30T08:56:36;102589.78;;;8.21;100.00
11440;BME280;5776;51.814;4.510;2024-01-30T08:59:03;102593.69;;;8.26;100.00
11440;BME280;5776;51.814;4.510;2024-01-30T09:01:29;102587.00;;;8.28;100.00
11440;BME280;5776;51.814;4.510;2024-01-30T09:03:56;102597.34;;;8.31;100.00
11440;BME280;5776;51.814;4.510;2024-01-30T09:06:22;102603.38;;;8.33;100.00
11440;BME280;5776;51.814;4.510;2024-01-30T09:08:50;102608.78;;;8.33;100.00
11440;BME280;5776;51.814;4.510;2024-01-30T09:11:16;102596.69;;;8.36;100.00
11440;BME280;5776;51.814;4.510;2024-01-30T09:13:42;102599.13;;;8.37;100.00
11440;BME280;5776;51.814;4.510;2024-01-30T09:16:09;102602.25;;;8.41;100.00
11440;BME280;5776;51.814;4.510;2024-01-30T09:18:35;102607.19;;;8.44;100.00
11440;BME280;5776;51.814;4.510;2024-01-30T09:21:01;102616.16;;;8.44;100.00
11440;BME280;5776;51.814;4.510;2024-01-30T09:23:27;102617.34;;;8.49;100.00
11440;BME280;5776;51.814;4.510;2024-01-30T09:25:53;102614.41;;;8.50;100.00
11440;BME280;5776;51.814;4.510;2024-01-30T09:28:19;102614.16;;;8.52;100.00
11440;BME280;5776;51.814;4.510;2024-01-30T09:30:45;102621.81;;;8.55;100.00
11440;BME280;5776;51.814;4.510;2024-01-30T09:33:10;102625.13;;;8.57;100.00
11440;BME280;5776;51.814;4.510;2024-01-30T09:35:36;102630.34;;;8.58;100.00
11440;BME280;5776;51.814;4.510;2024-01-30T09:38:03;102631.50;;;8.62;100.00
11440;BME280;5776;51.814;4.510;2024-01-30T09:40:29;102629.19;;;8.66;100.00
11440;BME280;5776;51.814;4.510;2024-01-30T09:42:55;102631.88;;;8.66;100.00
11440;BME280;5776;51.814;4.510;2024-01-30T09:45:25;102637.06;;;8.68;100.00
11440;BME280;5776;51.814;4.510;2024-01-30T09:47:51;102630.81;;;8.67;100.00
11440;BME280;5776;51.814;4.510;2024-01-30T09:50:17;102637.66;;;8.70;100.00
11440;BME280;5776;51.814;4.510;2024-01-30T09:52:44;102647.44;;;8.71;100.00
11440;BME280;5776;51.814;4.510;2024-01-30T09:55:11;102656.16;;;8.73;100.00
11440;BME280;5776;51.814;4.510;2024-01-30T09:57:37;102655.47;;;8.77;100.00
11440;BME280;5776;51.814;4.510;2024-01-30T10:00:04;102655.25;;;8.79;100.00
11440;BME280;5776;51.814;4.510;2024-01-30T10:02:34;102668.31;;;8.82;100.00
11440;BME280;5776;51.814;4.510;2024-01-30T10:05:00;102673.50;;;8.83;100.00
11440;BME280;5776;51.814;4.510;2024-01-30T10:07:26;102659.50;;;8.86;100.00
11440;BME280;5776;51.814;4.510;2024-01-30T10:09:53;102651.38;;;8.86;100.00
11440;BME280;5776;51.814;4.510;2024-01-30T10:12:18;102660.91;;;8.89;100.00
11440;BME280;5776;51.814;4.510;2024-01-30T10:14:45;102670.94;;;8.89;100.00
11440;BME280;5776;51.814;4.510;2024-01-30T10:17:12;102676.34;;;8.89;100.00
11440;BME280;5776;51.814;4.510;2024-01-30T10:19:39;102674.47;;;8.89;100.00
11440;BME280;5776;51.814;4.510;2024-01-30T10:22:05;102682.13;;;8.92;100.00
11440;BME280;5776;51.814;4.510;2024-01-30T10:24:33;102687.19;;;8.89;100.00
11440;BME280;5776;51.814;4.510;2024-01-30T10:26:59;102682.59;;;8.89;100.00
11440;BME280;5776;51.814;4.510;2024-01-30T10:29:25;102692.63;;;8.89;100.00
11440;BME280;5776;51.814;4.510;2024-01-30T10:32:01;102692.97;;;8.92;100.00
11440;BME280;5776;51.814;4.510;2024-01-30T10:34:27;102696.75;;;8.91;100.00
11440;BME280;5776;51.814;4.510;2024-01-30T10:37:00;102705.09;;;8.90;100.00
11440;BME280;5776;51.814;4.510;2024-01-30T10:39:31;102702.38;;;8.90;100.00
11440;BME280;5776;51.814;4.510;2024-01-30T10:42:03;102698.84;;;8.89;100.00
11440;BME280;5776;51.814;4.510;2024-01-30T10:44:37;102708.06;;;8.88;100.00
11440;BME280;5776;51.814;4.510;2024-01-30T10:47:09;102709.69;;;8.89;100.00
11440;BME280;5776;51.814;4.510;2024-01-30T10:49:39;102705.56;;;8.86;100.00
11440;BME280;5776;51.814;4.510;2024-01-30T10:52:08;102704.75;;;8.86;100.00
11440;BME280;5776;51.814;4.510;2024-01-30T10:54:35;102702.84;;;8.86;100.00
11440;BME280;5776;51.814;4.510;2024-01-30T10:57:01;102707.44;;;8.86;100.00
11440;BME280;5776;51.814;4.510;2024-01-30T10:59:30;102713.09;;;8.84;100.00
11440;BME280;5776;51.814;4.510;2024-01-30T11:01:57;102702.38;;;8.90;100.00
11440;BME280;5776;51.814;4.510;2024-01-30T11:04:23;102710.75;;;8.88;100.00
11440;BME280;5776;51.814;4.510;2024-01-30T11:06:51;102703.44;;;8.89;100.00
11440;BME280;5776;51.814;4.510;2024-01-30T11:09:18;102715.34;;;8.87;100.00
11440;BME280;5776;51.814;4.510;2024-01-30T11:11:57;102717.00;;;8.89;100.00
11440;BME280;5776;51.814;4.510;2024-01-30T11:14:29;102723.47;;;8.87;100.00
11440;BME280;5776;51.814;4.510;2024-01-30T11:16:59;102729.13;;;8.86;100.00
11440;BME280;5776;51.814;4.510;2024-01-30T11:19:26;102729.13;;;8.86;100.00
11440;BME280;5776;51.814;4.510;2024-01-30T11:21:56;102733.94;;;8.84;100.00
11440;BME280;5776;51.814;4.510;2024-01-30T11:24:27;102742.53;;;8.81;100.00
11440;BME280;5776;51.814;4.510;2024-01-30T11:26:56;102739.00;;;8.80;100.00
11440;BME280;5776;51.814;4.510;2024-01-30T11:29:29;102741.13;;;8.78;100.00
11440;BME280;5776;51.814;4.510;2024-01-30T11:31:56;102743.22;;;8.76;100.00
11440;BME280;5776;51.814;4.510;2024-01-30T11:34:22;102747.00;;;8.75;100.00
11440;BME280;5776;51.814;4.510;2024-01-30T11:36:52;102746.41;;;8.73;100.00
11440;BME280;5776;51.814;4.510;2024-01-30T11:39:25;102756.03;;;8.69;100.00
11440;BME280;5776;51.814;4.510;2024-01-30T11:41:52;102764.16;;;8.69;100.00
11440;BME280;5776;51.814;4.510;2024-01-30T11:44:19;102750.00;;;8.67;100.00
11440;BME280;5776;51.814;4.510;2024-01-30T11:46:48;102755.41;;;8.67;100.00
11440;BME280;5776;51.814;4.510;2024-01-30T11:49:14;102750.47;;;8.64;100.00
11440;BME280;5776;51.814;4.510;2024-01-30T11:51:40;102750.94;;;8.61;100.00
11440;BME280;5776;51.814;4.510;2024-01-30T11:54:07;102750.94;;;8.61;100.00
11440;BME280;5776;51.814;4.510;2024-01-30T11:56:33;102752.22;;;8.58;100.00
11440;BME280;5776;51.814;4.510;2024-01-30T11:58:59;102763.88;;;8.59;100.00
11440;BME280;5776;51.814;4.510;2024-01-30T12:01:28;102749.72;;;8.57;100.00
11440;BME280;5776;51.814;4.510;2024-01-30T12:03:54;102758.91;;;8.56;100.00
11440;BME280;5776;51.814;4.510;2024-01-30T12:06:24;102749.38;;;8.53;100.00
11440;BME280;5776;51.814;4.510;2024-01-30T12:08:57;102744.78;;;8.54;100.00
11440;BME280;5776;51.814;4.510;2024-01-30T12:11:24;102739.81;;;8.51;100.00
11440;BME280;5776;51.814;4.510;2024-01-30T12:13:52;102754.78;;;8.53;100.00
11440;BME280;5776;51.814;4.510;2024-01-30T12:16:18;102753.09;;;8.52;100.00
11440;BME280;5776;51.814;4.510;2024-01-30T12:18:44;102757.69;;;8.52;100.00
11440;BME280;5776;51.814;4.510;2024-01-30T12:21:10;102757.69;;;8.52;100.00
11440;BME280;5776;51.814;4.510;2024-01-30T12:23:36;102755.00;;;8.52;100.00
11440;BME280;5776;51.814;4.510;2024-01-30T12:26:04;102772.06;;;8.52;100.00
11440;BME280;5776;51.814;4.510;2024-01-30T12:28:35;102773.13;;;8.51;100.00
11440;BME280;5776;51.814;4.510;2024-01-30T12:31:04;102765.81;;;8.52;100.00
11440;BME280;5776;51.814;4.510;2024-01-30T12:33:30;102764.19;;;8.51;100.00
11440;BME280;5776;51.814;4.510;2024-01-30T12:35:57;102764.19;;;8.51;100.00
11440;BME280;5776;51.814;4.510;2024-01-30T12:38:24;102768.19;;;8.48;100.00
11440;BME280;5776;51.814;4.510;2024-01-30T12:40:54;102773.81;;;8.47;100.00
11440;BME280;5776;51.814;4.510;2024-01-30T12:43:21;102780.88;;;8.48;100.00
11440;BME280;5776;51.814;4.510;2024-01-30T12:45:47;102773.00;;;8.46;100.00
11440;BME280;5776;51.814;4.510;2024-01-30T12:48:13;102783.00;;;8.46;100.00
11440;BME280;5776;51.814;4.510;2024-01-30T12:50:39;102774.25;;;8.43;100.00
11440;BME280;5776;51.814;4.510;2024-01-30T12:53:05;102774.88;;;8.46;100.00
11440;BME280;5776;51.814;4.510;2024-01-30T12:55:31;102779.06;;;8.41;100.00
11440;BME280;5776;51.814;4.510;2024-01-30T12:57:57;102785.31;;;8.42;100.00